sensor_id;sensor_type;location;lat;lon;timestamp;P1;durP1;ratioP1;P2;durP2;ratioP2
48993;SDS011;34804;49.214;12.276;2022-09-09T00:04:49;8.18;;;2.45;;
48993;SDS011;34804;49.214;12.276;2022-09-09T00:07:32;7.78;;;2.13;;
48993;SDS011;34804;49.214;12.276;2022-09-09T00:15:33;5.60;;;2.10;;
48993;SDS011;34804;49.214;12.276;2022-09-09T00:18:15;7.72;;;2.40;;
48993;SDS011;34804;49.214;12.276;2022-09-09T00:20:47;5.68;;;2.75;;
48993;SDS011;34804;49.214;12.276;2022-09-09T00:23:21;3.78;;;1.88;;
48993;SDS011;34804;49.214;12.276;2022-09-09T00:28:36;4.18;;;1.92;;
48993;SDS011;34804;49.214;12.276;2022-09-09T00:31:11;6.43;;;2.05;;
48993;SDS011;34804;49.214;12.276;2022-09-09T00:33:51;6.65;;;2.35;;
48993;SDS011;34804;49.214;12.276;2022-09-09T00:36:21;5.53;;;1.90;;
48993;SDS011;34804;49.214;12.276;2022-09-09T00:38:52;5.50;;;2.10;;
48993;SDS011;34804;49.214;12.276;2022-09-09T00:52:03;8.07;;;2.75;;
48993;SDS011;34804;49.214;12.276;2022-09-09T01:05:01;5.00;;;2.20;;
48993;SDS011;34804;49.214;12.276;2022-09-09T01:07:40;7.38;;;2.42;;
48993;SDS011;34804;49.214;12.276;2022-09-09T01:10:49;5.25;;;2.20;;
48993;SDS011;34804;49.214;12.276;2022-09-09T01:13:11;4.78;;;2.35;;
48993;SDS011;34804;49.214;12.276;2022-09-09T01:15:43;8.18;;;2.45;;
48993;SDS011;34804;49.214;12.276;2022-09-09T01:18:11;5.70;;;1.80;;
48993;SDS011;34804;49.214;12.276;2022-09-09T01:26:54;15.80;;;3.55;;
48993;SDS011;34804;49.214;12.276;2022-09-09T01:29:25;7.22;;;2.67;;
48993;SDS011;34804;49.214;12.276;2022-09-09T01:31:56;7.88;;;3.00;;
48993;SDS011;34804;49.214;12.276;2022-09-09T01:34:24;7.60;;;2.38;;
48993;SDS011;34804;49.214;12.276;2022-09-09T01:39:26;10.98;;;2.15;;
48993;SDS011;34804;49.214;12.276;2022-09-09T01:41:53;5.53;;;2.10;;
48993;SDS011;34804;49.214;12.276;2022-09-09T01:44:22;5.03;;;2.10;;
48993;SDS011;34804;49.214;12.276;2022-09-09T01:46:50;4.85;;;1.95;;
48993;SDS011;34804;49.214;12.276;2022-09-09T01:49:17;8.27;;;2.33;;
48993;SDS011;34804;49.214;12.276;2022-09-09T01:51:45;5.95;;;2.22;;
48993;SDS011;34804;49.214;12.276;2022-09-09T01:54:15;5.68;;;2.50;;
48993;SDS011;34804;49.214;12.276;2022-09-09T01:56:47;6.25;;;1.95;;
48993;SDS011;34804;49.214;12.276;2022-09-09T02:05:18;5.43;;;2.60;;
48993;SDS011;34804;49.214;12.276;2022-09-09T02:07:49;7.60;;;2.20;;
48993;SDS011;34804;49.214;12.276;2022-09-09T02:10:23;7.50;;;2.30;;
48993;SDS011;34804;49.214;12.276;2022-09-09T02:12:55;5.88;;;2.50;;
48993;SDS011;34804;49.214;12.276;2022-09-09T02:21:16;9.02;;;2.80;;
48993;SDS011;34804;49.214;12.276;2022-09-09T02:23:45;5.75;;;2.10;;
48993;SDS011;34804;49.214;12.276;2022-09-09T02:26:14;4.10;;;2.10;;
48993;SDS011;34804;49.214;12.276;2022-09-09T02:31:19;6.78;;;2.40;;
48993;SDS011;34804;49.214;12.276;2022-09-09T02:33:51;5.03;;;1.90;;
48993;SDS011;34804;49.214;12.276;2022-09-09T02:36:23;7.20;;;1.90;;
48993;SDS011;34804;49.214;12.276;2022-09-09T02:38:52;5.18;;;1.85;;
48993;SDS011;34804;49.214;12.276;2022-09-09T02:41:20;5.70;;;2.00;;
48993;SDS011;34804;49.214;12.276;2022-09-09T02:43:59;7.43;;;2.22;;
48993;SDS011;34804;49.214;12.276;2022-09-09T02:46:29;8.27;;;1.92;;
48993;SDS011;34804;49.214;12.276;2022-09-09T02:59:46;5.80;;;2.28;;
48993;SDS011;34804;49.214;12.276;2022-09-09T03:02:14;6.63;;;2.22;;
48993;SDS011;34804;49.214;12.276;2022-09-09T03:04:41;5.78;;;2.25;;
48993;SDS011;34804;49.214;12.276;2022-09-09T03:07:11;4.90;;;2.80;;
48993;SDS011;34804;49.214;12.276;2022-09-09T03:09:38;11.57;;;2.60;;
48993;SDS011;34804;49.214;12.276;2022-09-09T03:12:05;4.95;;;2.47;;
48993;SDS011;34804;49.214;12.276;2022-09-09T03:14:31;7.25;;;2.78;;
48993;SDS011;34804;49.214;12.276;2022-09-09T03:16:59;7.90;;;2.35;;
48993;SDS011;34804;49.214;12.276;2022-09-09T03:19:27;4.85;;;1.65;;
48993;SDS011;34804;49.214;12.276;2022-09-09T03:21:54;6.13;;;1.70;;
48993;SDS011;34804;49.214;12.276;2022-09-09T03:24:21;8.63;;;2.20;;
48993;SDS011;34804;49.214;12.276;2022-09-09T03:26:48;7.18;;;2.35;;
48993;SDS011;34804;49.214;12.276;2022-09-09T03:29:16;4.50;;;2.00;;
48993;SDS011;34804;49.214;12.276;2022-09-09T03:31:44;4.00;;;2.05;;
48993;SDS011;34804;49.214;12.276;2022-09-09T03:34:11;3.63;;;1.90;;
48993;SDS011;34804;49.214;12.276;2022-09-09T03:36:39;4.20;;;1.83;;
48993;SDS011;34804;49.214;12.276;2022-09-09T03:39:07;7.30;;;2.10;;
48993;SDS011;34804;49.214;12.276;2022-09-09T03:41:34;7.40;;;2.13;;
48993;SDS011;34804;49.214;12.276;2022-09-09T03:44:00;12.05;;;2.38;;
48993;SDS011;34804;49.214;12.276;2022-09-09T03:46:27;6.55;;;2.50;;
48993;SDS011;34804;49.214;12.276;2022-09-09T03:48:54;8.00;;;2.55;;
48993;SDS011;34804;49.214;12.276;2022-09-09T03:51:21;7.15;;;2.47;;
48993;SDS011;34804;49.214;12.276;2022-09-09T03:53:48;11.45;;;2.38;;
48993;SDS011;34804;49.214;12.276;2022-09-09T03:56:15;6.45;;;2.20;;
48993;SDS011;34804;49.214;12.276;2022-09-09T03:58:41;8.38;;;2.60;;
48993;SDS011;34804;49.214;12.276;2022-09-09T04:01:09;3.53;;;1.77;;
48993;SDS011;34804;49.214;12.276;2022-09-09T04:03:41;6.72;;;2.10;;
48993;SDS011;34804;49.214;12.276;2022-09-09T04:06:09;15.43;;;2.80;;
48993;SDS011;34804;49.214;12.276;2022-09-09T04:08:40;6.05;;;2.22;;
48993;SDS011;34804;49.214;12.276;2022-09-09T04:11:07;8.90;;;2.78;;
48993;SDS011;34804;49.214;12.276;2022-09-09T04:13:35;8.07;;;2.58;;
48993;SDS011;34804;49.214;12.276;2022-09-09T04:16:06;9.88;;;2.58;;
48993;SDS011;34804;49.214;12.276;2022-09-09T04:18:34;8.40;;;2.55;;
48993;SDS011;34804;49.214;12.276;2022-09-09T04:21:01;9.25;;;3.33;;
48993;SDS011;34804;49.214;12.276;2022-09-09T04:23:29;6.80;;;2.85;;
48993;SDS011;34804;49.214;12.276;2022-09-09T04:25:57;7.32;;;2.65;;
48993;SDS011;34804;49.214;12.276;2022-09-09T04:28:25;8.80;;;3.15;;
48993;SDS011;34804;49.214;12.276;2022-09-09T04:30:54;9.45;;;2.92;;
48993;SDS011;34804;49.214;12.276;2022-09-09T04:33:23;6.35;;;3.00;;
48993;SDS011;34804;49.214;12.276;2022-09-09T04:35:52;5.93;;;2.38;;
48993;SDS011;34804;49.214;12.276;2022-09-09T04:38:21;7.03;;;2.25;;
48993;SDS011;34804;49.214;12.276;2022-09-09T04:40:49;4.53;;;2.13;;
48993;SDS011;34804;49.214;12.276;2022-09-09T04:43:18;6.97;;;3.25;;
48993;SDS011;34804;49.214;12.276;2022-09-09T04:45:47;7.03;;;2.55;;
48993;SDS011;34804;49.214;12.276;2022-09-09T04:48:14;5.72;;;2.25;;
48993;SDS011;34804;49.214;12.276;2022-09-09T04:50:41;7.38;;;2.50;;
48993;SDS011;34804;49.214;12.276;2022-09-09T04:53:08;8.07;;;2.55;;
48993;SDS011;34804;49.214;12.276;2022-09-09T04:55:35;23.33;;;3.78;;
48993;SDS011;34804;49.214;12.276;2022-09-09T04:58:05;13.48;;;3.65;;
48993;SDS011;34804;49.214;12.276;2022-09-09T05:00:33;7.50;;;3.22;;
48993;SDS011;34804;49.214;12.276;2022-09-09T05:03:03;17.55;;;4.32;;
48993;SDS011;34804;49.214;12.276;2022-09-09T05:05:35;15.07;;;3.33;;
48993;SDS011;34804;49.214;12.276;2022-09-09T05:08:02;14.55;;;3.63;;
48993;SDS011;34804;49.214;12.276;2022-09-09T05:10:33;9.40;;;3.20;;
48993;SDS011;34804;49.214;12.276;2022-09-09T05:13:00;12.43;;;3.38;;
48993;SDS011;34804;49.214;12.276;2022-09-09T05:15:27;6.45;;;2.97;;
48993;SDS011;34804;49.214;12.276;2022-09-09T05:17:58;12.32;;;5.30;;
48993;SDS011;34804;49.214;12.276;2022-09-09T05:20:27;11.23;;;5.13;;
48993;SDS011;34804;49.214;12.276;2022-09-09T05:22:54;11.55;;;4.80;;
48993;SDS011;34804;49.214;12.276;2022-09-09T05:25:22;9.18;;;4.60;;
48993;SDS011;34804;49.214;12.276;2022-09-09T05:27:52;8.27;;;4.35;;
48993;SDS011;34804;49.214;12.276;2022-09-09T05:30:20;7.30;;;4.35;;
48993;SDS011;34804;49.214;12.276;2022-09-09T05:32:48;7.40;;;4.10;;
48993;SDS011;34804;49.214;12.276;2022-09-09T05:35:15;10.95;;;3.65;;
48993;SDS011;34804;49.214;12.276;2022-09-09T05:37:42;10.27;;;4.32;;
48993;SDS011;34804;49.214;12.276;2022-09-09T05:40:09;9.32;;;4.68;;
48993;SDS011;34804;49.214;12.276;2022-09-09T05:42:37;8.52;;;3.90;;
48993;SDS011;34804;49.214;12.276;2022-09-09T05:45:05;11.52;;;4.45;;
48993;SDS011;34804;49.214;12.276;2022-09-09T05:47:34;8.85;;;4.00;;
48993;SDS011;34804;49.214;12.276;2022-09-09T05:50:01;6.18;;;3.88;;
48993;SDS011;34804;49.214;12.276;2022-09-09T05:52:29;11.90;;;4.07;;
48993;SDS011;34804;49.214;12.276;2022-09-09T05:54:56;8.60;;;3.72;;
48993;SDS011;34804;49.214;12.276;2022-09-09T05:57:23;8.60;;;4.15;;
48993;SDS011;34804;49.214;12.276;2022-09-09T05:59:49;7.20;;;3.88;;
48993;SDS011;34804;49.214;12.276;2022-09-09T06:02:16;7.05;;;4.18;;
48993;SDS011;34804;49.214;12.276;2022-09-09T06:04:43;7.05;;;3.90;;
48993;SDS011;34804;49.214;12.276;2022-09-09T06:07:10;11.77;;;4.43;;
48993;SDS011;34804;49.214;12.276;2022-09-09T06:09:37;6.55;;;4.25;;
48993;SDS011;34804;49.214;12.276;2022-09-09T06:12:03;7.72;;;4.05;;
48993;SDS011;34804;49.214;12.276;2022-09-09T06:14:30;8.90;;;4.35;;
48993;SDS011;34804;49.214;12.276;2022-09-09T06:16:57;12.98;;;4.43;;
48993;SDS011;34804;49.214;12.276;2022-09-09T06:19:24;8.70;;;4.38;;
48993;SDS011;34804;49.214;12.276;2022-09-09T06:21:52;7.55;;;4.63;;
48993;SDS011;34804;49.214;12.276;2022-09-09T06:24:19;10.38;;;4.45;;
48993;SDS011;34804;49.214;12.276;2022-09-09T06:26:46;8.32;;;4.40;;
48993;SDS011;34804;49.214;12.276;2022-09-09T06:29:12;8.07;;;4.72;;
48993;SDS011;34804;49.214;12.276;2022-09-09T06:31:39;9.85;;;5.15;;
48993;SDS011;34804;49.214;12.276;2022-09-09T06:34:08;5.75;;;4.00;;
48993;SDS011;34804;49.214;12.276;2022-09-09T06:36:36;5.88;;;3.83;;
48993;SDS011;34804;49.214;12.276;2022-09-09T06:39:05;7.13;;;3.65;;
48993;SDS011;34804;49.214;12.276;2022-09-09T06:41:38;6.35;;;4.07;;
48993;SDS011;34804;49.214;12.276;2022-09-09T06:44:05;7.45;;;4.18;;
48993;SDS011;34804;49.214;12.276;2022-09-09T06:46:32;8.15;;;4.38;;
48993;SDS011;34804;49.214;12.276;2022-09-09T06:49:00;7.35;;;4.88;;
48993;SDS011;34804;49.214;12.276;2022-09-09T06:51:28;9.65;;;6.80;;
48993;SDS011;34804;49.214;12.276;2022-09-09T06:53:58;14.13;;;6.57;;
48993;SDS011;34804;49.214;12.276;2022-09-09T06:59:00;11.88;;;6.55;;
48993;SDS011;34804;49.214;12.276;2022-09-09T07:01:31;11.30;;;6.32;;
48993;SDS011;34804;49.214;12.276;2022-09-09T07:04:03;10.63;;;6.18;;
48993;SDS011;34804;49.214;12.276;2022-09-09T07:06:34;9.20;;;5.82;;
48993;SDS011;34804;49.214;12.276;2022-09-09T07:09:03;8.35;;;4.60;;
48993;SDS011;34804;49.214;12.276;2022-09-09T07:11:33;12.50;;;4.20;;
48993;SDS011;34804;49.214;12.276;2022-09-09T07:14:03;7.47;;;4.40;;
48993;SDS011;34804;49.214;12.276;2022-09-09T07:16:30;8.45;;;5.03;;
48993;SDS011;34804;49.214;12.276;2022-09-09T07:19:00;7.15;;;4.45;;
48993;SDS011;34804;49.214;12.276;2022-09-09T07:21:29;7.97;;;4.70;;
48993;SDS011;34804;49.214;12.276;2022-09-09T07:23:56;12.00;;;4.85;;
48993;SDS011;34804;49.214;12.276;2022-09-09T07:26:27;11.13;;;5.80;;
48993;SDS011;34804;49.214;12.276;2022-09-09T07:28:55;7.88;;;4.85;;
48993;SDS011;34804;49.214;12.276;2022-09-09T07:31:24;6.82;;;4.95;;
48993;SDS011;34804;49.214;12.276;2022-09-09T07:33:53;8.10;;;4.43;;
48993;SDS011;34804;49.214;12.276;2022-09-09T07:36:21;9.07;;;4.60;;
48993;SDS011;34804;49.214;12.276;2022-09-09T07:38:51;6.20;;;4.32;;
48993;SDS011;34804;49.214;12.276;2022-09-09T07:41:41;7.63;;;4.68;;
48993;SDS011;34804;49.214;12.276;2022-09-09T07:44:11;6.82;;;4.45;;
48993;SDS011;34804;49.214;12.276;2022-09-09T07:46:39;6.28;;;4.07;;
48993;SDS011;34804;49.214;12.276;2022-09-09T07:49:07;9.80;;;3.70;;
48993;SDS011;34804;49.214;12.276;2022-09-09T07:51:36;5.10;;;2.97;;
48993;SDS011;34804;49.214;12.276;2022-09-09T07:54:09;5.10;;;2.58;;
48993;SDS011;34804;49.214;12.276;2022-09-09T07:56:37;5.07;;;2.90;;
48993;SDS011;34804;49.214;12.276;2022-09-09T07:59:06;5.75;;;2.75;;
48993;SDS011;34804;49.214;12.276;2022-09-09T08:01:37;6.45;;;2.92;;
48993;SDS011;34804;49.214;12.276;2022-09-09T08:04:07;4.82;;;2.53;;
48993;SDS011;34804;49.214;12.276;2022-09-09T08:06:37;4.82;;;2.42;;
48993;SDS011;34804;49.214;12.276;2022-09-09T08:09:05;6.15;;;2.47;;
48993;SDS011;34804;49.214;12.276;2022-09-09T08:11:33;4.10;;;2.28;;
48993;SDS011;34804;49.214;12.276;2022-09-09T08:14:06;5.07;;;2.50;;
48993;SDS011;34804;49.214;12.276;2022-09-09T08:16:35;5.35;;;2.20;;
48993;SDS011;34804;49.214;12.276;2022-09-09T08:19:05;5.20;;;2.30;;
48993;SDS011;34804;49.214;12.276;2022-09-09T08:21:33;5.32;;;2.13;;
48993;SDS011;34804;49.214;12.276;2022-09-09T08:24:03;8.32;;;3.40;;
48993;SDS011;34804;49.214;12.276;2022-09-09T08:26:36;7.15;;;2.00;;
48993;SDS011;34804;49.214;12.276;2022-09-09T08:29:05;5.90;;;2.28;;
48993;SDS011;34804;49.214;12.276;2022-09-09T08:31:34;5.00;;;1.42;;
48993;SDS011;34804;49.214;12.276;2022-09-09T08:34:12;6.25;;;1.70;;
48993;SDS011;34804;49.214;12.276;2022-09-09T08:36:41;5.20;;;2.00;;
48993;SDS011;34804;49.214;12.276;2022-09-09T08:39:10;4.18;;;2.00;;
48993;SDS011;34804;49.214;12.276;2022-09-09T08:45:12;7.20;;;2.15;;
48993;SDS011;34804;49.214;12.276;2022-09-09T08:47:50;5.93;;;2.45;;
48993;SDS011;34804;49.214;12.276;2022-09-09T08:50:29;5.05;;;2.22;;
48993;SDS011;34804;49.214;12.276;2022-09-09T08:55:41;6.47;;;2.83;;
48993;SDS011;34804;49.214;12.276;2022-09-09T08:58:25;5.85;;;3.28;;
48993;SDS011;34804;49.214;12.276;2022-09-09T09:06:21;6.97;;;3.30;;
48993;SDS011;34804;49.214;12.276;2022-09-09T09:09:00;6.63;;;3.15;;
48993;SDS011;34804;49.214;12.276;2022-09-09T09:11:48;6.00;;;3.20;;
48993;SDS011;34804;49.214;12.276;2022-09-09T09:14:25;7.90;;;3.90;;
48993;SDS011;34804;49.214;12.276;2022-09-09T09:16:58;7.80;;;3.50;;
48993;SDS011;34804;49.214;12.276;2022-09-09T09:19:33;6.93;;;3.45;;
48993;SDS011;34804;49.214;12.276;2022-09-09T09:22:04;8.43;;;3.08;;
48993;SDS011;34804;49.214;12.276;2022-09-09T09:27:31;6.25;;;2.70;;
48993;SDS011;34804;49.214;12.276;2022-09-09T09:29:59;8.07;;;2.90;;
48993;SDS011;34804;49.214;12.276;2022-09-09T09:35:24;4.18;;;2.13;;
48993;SDS011;34804;49.214;12.276;2022-09-09T09:37:51;4.20;;;2.22;;
48993;SDS011;34804;49.214;12.276;2022-09-09T09:40:47;7.25;;;2.20;;
48993;SDS011;34804;49.214;12.276;2022-09-09T09:43:26;5.78;;;2.00;;
48993;SDS011;34804;49.214;12.276;2022-09-09T09:45:55;4.60;;;2.10;;
48993;SDS011;34804;49.214;12.276;2022-09-09T09:48:42;4.38;;;1.73;;
48993;SDS011;34804;49.214;12.276;2022-09-09T09:51:11;4.15;;;1.90;;
48993;SDS011;34804;49.214;12.276;2022-09-09T09:53:43;3.47;;;1.65;;
48993;SDS011;34804;49.214;12.276;2022-09-09T09:56:13;3.92;;;1.20;;
48993;SDS011;34804;49.214;12.276;2022-09-09T10:01:25;5.10;;;1.40;;
48993;SDS011;34804;49.214;12.276;2022-09-09T10:03:58;3.00;;;1.27;;
48993;SDS011;34804;49.214;12.276;2022-09-09T10:06:31;3.85;;;1.15;;
48993;SDS011;34804;49.214;12.276;2022-09-09T10:09:17;3.30;;;1.20;;
48993;SDS011;34804;49.214;12.276;2022-09-09T10:11:50;3.40;;;0.95;;
48993;SDS011;34804;49.214;12.276;2022-09-09T10:31:35;3.60;;;0.90;;
48993;SDS011;34804;49.214;12.276;2022-09-09T10:34:36;2.53;;;0.90;;
48993;SDS011;34804;49.214;12.276;2022-09-09T10:37:25;2.95;;;0.90;;
48993;SDS011;34804;49.214;12.276;2022-09-09T10:42:59;3.78;;;1.50;;
48993;SDS011;34804;49.214;12.276;2022-09-09T10:51:39;2.88;;;1.00;;
48993;SDS011;34804;49.214;12.276;2022-09-09T10:56:36;3.88;;;1.00;;
48993;SDS011;34804;49.214;12.276;2022-09-09T10:59:13;2.95;;;0.82;;
48993;SDS011;34804;49.214;12.276;2022-09-09T11:04:17;2.85;;;0.90;;
48993;SDS011;34804;49.214;12.276;2022-09-09T11:07:02;3.95;;;0.85;;
48993;SDS011;34804;49.214;12.276;2022-09-09T11:09:39;4.63;;;0.85;;
48993;SDS011;34804;49.214;12.276;2022-09-09T11:12:12;2.28;;;0.85;;
48993;SDS011;34804;49.214;12.276;2022-09-09T11:14:47;2.33;;;0.75;;
48993;SDS011;34804;49.214;12.276;2022-09-09T11:17:19;3.03;;;0.70;;
48993;SDS011;34804;49.214;12.276;2022-09-09T11:19:53;3.53;;;0.90;;
48993;SDS011;34804;49.214;12.276;2022-09-09T11:22:25;1.50;;;0.55;;
48993;SDS011;34804;49.214;12.276;2022-09-09T11:30:19;1.92;;;0.70;;
48993;SDS011;34804;49.214;12.276;2022-09-09T11:36:22;1.60;;;0.70;;
48993;SDS011;34804;49.214;12.276;2022-09-09T11:41:50;7.05;;;1.00;;
48993;SDS011;34804;49.214;12.276;2022-09-09T11:44:20;2.47;;;0.73;;
48993;SDS011;34804;49.214;12.276;2022-09-09T11:46:56;2.03;;;0.77;;
48993;SDS011;34804;49.214;12.276;2022-09-09T11:49:40;3.80;;;0.95;;
48993;SDS011;34804;49.214;12.276;2022-09-09T11:52:51;2.75;;;0.85;;
48993;SDS011;34804;49.214;12.276;2022-09-09T11:55:09;2.03;;;0.88;;
48993;SDS011;34804;49.214;12.276;2022-09-09T11:57:38;2.38;;;1.10;;
48993;SDS011;34804;49.214;12.276;2022-09-09T12:00:05;2.60;;;0.90;;
48993;SDS011;34804;49.214;12.276;2022-09-09T12:02:33;3.88;;;1.08;;
48993;SDS011;34804;49.214;12.276;2022-09-09T12:05:07;3.13;;;1.00;;
48993;SDS011;34804;49.214;12.276;2022-09-09T12:12:45;1.60;;;0.80;;
48993;SDS011;34804;49.214;12.276;2022-09-09T12:17:43;2.50;;;0.80;;
48993;SDS011;34804;49.214;12.276;2022-09-09T12:20:18;2.85;;;0.77;;
48993;SDS011;34804;49.214;12.276;2022-09-09T12:22:50;2.85;;;0.70;;
48993;SDS011;34804;49.214;12.276;2022-09-09T12:28:11;1.63;;;0.60;;
48993;SDS011;34804;49.214;12.276;2022-09-09T12:30:56;1.58;;;0.60;;
48993;SDS011;34804;49.214;12.276;2022-09-09T12:33:35;2.42;;;0.85;;
48993;SDS011;34804;49.214;12.276;2022-09-09T12:36:11;5.53;;;1.15;;
48993;SDS011;34804;49.214;12.276;2022-09-09T12:38:58;2.85;;;0.90;;
48993;SDS011;34804;49.214;12.276;2022-09-09T12:41:41;2.90;;;0.95;;
48993;SDS011;34804;49.214;12.276;2022-09-09T12:44:16;2.15;;;0.80;;
48993;SDS011;34804;49.214;12.276;2022-09-09T12:46:43;2.78;;;0.80;;
48993;SDS011;34804;49.214;12.276;2022-09-09T12:49:29;4.53;;;1.13;;
48993;SDS011;34804;49.214;12.276;2022-09-09T12:52:03;1.75;;;0.85;;
48993;SDS011;34804;49.214;12.276;2022-09-09T12:54:33;5.43;;;1.20;;
48993;SDS011;34804;49.214;12.276;2022-09-09T12:57:02;3.05;;;1.00;;
48993;SDS011;34804;49.214;12.276;2022-09-09T12:59:36;7.82;;;2.17;;
48993;SDS011;34804;49.214;12.276;2022-09-09T13:02:22;8.52;;;1.20;;
48993;SDS011;34804;49.214;12.276;2022-09-09T13:04:52;7.35;;;1.42;;
48993;SDS011;34804;49.214;12.276;2022-09-09T13:07:20;3.70;;;1.20;;
48993;SDS011;34804;49.214;12.276;2022-09-09T13:09:48;2.88;;;0.90;;
48993;SDS011;34804;49.214;12.276;2022-09-09T13:12:19;3.95;;;1.00;;
48993;SDS011;34804;49.214;12.276;2022-09-09T13:14:49;4.50;;;1.17;;
48993;SDS011;34804;49.214;12.276;2022-09-09T13:17:23;3.88;;;1.05;;
48993;SDS011;34804;49.214;12.276;2022-09-09T13:19:52;2.53;;;0.70;;
48993;SDS011;34804;49.214;12.276;2022-09-09T13:22:20;3.00;;;1.02;;
48993;SDS011;34804;49.214;12.276;2022-09-09T13:24:47;3.85;;;0.90;;
48993;SDS011;34804;49.214;12.276;2022-09-09T13:27:30;3.63;;;1.05;;
48993;SDS011;34804;49.214;12.276;2022-09-09T13:30:00;2.50;;;0.90;;
48993;SDS011;34804;49.214;12.276;2022-09-09T13:32:28;4.05;;;1.00;;
48993;SDS011;34804;49.214;12.276;2022-09-09T13:34:58;4.15;;;1.10;;
48993;SDS011;34804;49.214;12.276;2022-09-09T13:37:36;3.53;;;1.20;;
48993;SDS011;34804;49.214;12.276;2022-09-09T13:40:04;3.15;;;1.25;;
48993;SDS011;34804;49.214;12.276;2022-09-09T13:42:33;3.58;;;1.20;;
48993;SDS011;34804;49.214;12.276;2022-09-09T13:47:42;4.05;;;1.30;;
48993;SDS011;34804;49.214;12.276;2022-09-09T13:50:10;4.45;;;1.25;;
48993;SDS011;34804;49.214;12.276;2022-09-09T13:52:47;4.53;;;1.50;;
48993;SDS011;34804;49.214;12.276;2022-09-09T13:55:16;5.03;;;1.50;;
48993;SDS011;34804;49.214;12.276;2022-09-09T13:57:53;5.03;;;1.40;;
48993;SDS011;34804;49.214;12.276;2022-09-09T14:00:31;3.53;;;1.23;;
48993;SDS011;34804;49.214;12.276;2022-09-09T14:03:00;5.22;;;1.52;;
48993;SDS011;34804;49.214;12.276;2022-09-09T14:05:31;5.53;;;1.30;;
48993;SDS011;34804;49.214;12.276;2022-09-09T14:07:58;3.75;;;1.15;;
48993;SDS011;34804;49.214;12.276;2022-09-09T14:10:26;4.15;;;1.00;;
48993;SDS011;34804;49.214;12.276;2022-09-09T14:12:53;4.65;;;1.35;;
48993;SDS011;34804;49.214;12.276;2022-09-09T14:15:20;4.20;;;1.40;;
48993;SDS011;34804;49.214;12.276;2022-09-09T14:17:48;3.67;;;1.20;;
48993;SDS011;34804;49.214;12.276;2022-09-09T14:20:14;4.43;;;1.92;;
48993;SDS011;34804;49.214;12.276;2022-09-09T14:22:43;2.20;;;1.00;;
48993;SDS011;34804;49.214;12.276;2022-09-09T14:25:10;4.85;;;1.13;;
48993;SDS011;34804;49.214;12.276;2022-09-09T14:27:39;3.97;;;1.15;;
48993;SDS011;34804;49.214;12.276;2022-09-09T14:30:07;2.88;;;1.20;;
48993;SDS011;34804;49.214;12.276;2022-09-09T14:32:34;3.60;;;1.10;;
48993;SDS011;34804;49.214;12.276;2022-09-09T14:35:01;5.15;;;1.55;;
48993;SDS011;34804;49.214;12.276;2022-09-09T14:37:28;3.50;;;1.02;;
48993;SDS011;34804;49.214;12.276;2022-09-09T14:39:57;5.30;;;1.25;;
48993;SDS011;34804;49.214;12.276;2022-09-09T14:42:24;3.22;;;1.10;;
48993;SDS011;34804;49.214;12.276;2022-09-09T14:44:52;14.90;;;3.08;;
48993;SDS011;34804;49.214;12.276;2022-09-09T14:47:18;5.55;;;1.50;;
48993;SDS011;34804;49.214;12.276;2022-09-09T14:49:45;4.47;;;1.20;;
48993;SDS011;34804;49.214;12.276;2022-09-09T14:52:12;4.03;;;1.20;;
48993;SDS011;34804;49.214;12.276;2022-09-09T14:54:39;3.38;;;1.00;;
48993;SDS011;34804;49.214;12.276;2022-09-09T14:57:06;3.08;;;1.10;;
48993;SDS011;34804;49.214;12.276;2022-09-09T14:59:33;3.03;;;1.00;;
48993;SDS011;34804;49.214;12.276;2022-09-09T15:02:00;3.70;;;1.02;;
48993;SDS011;34804;49.214;12.276;2022-09-09T15:04:30;4.82;;;1.02;;
48993;SDS011;34804;49.214;12.276;2022-09-09T15:06:57;5.82;;;1.25;;
48993;SDS011;34804;49.214;12.276;2022-09-09T15:09:24;2.38;;;1.00;;
48993;SDS011;34804;49.214;12.276;2022-09-09T15:11:51;4.45;;;1.15;;
48993;SDS011;34804;49.214;12.276;2022-09-09T15:14:18;3.53;;;1.00;;
48993;SDS011;34804;49.214;12.276;2022-09-09T15:16:50;3.58;;;1.08;;
48993;SDS011;34804;49.214;12.276;2022-09-09T15:19:17;3.88;;;0.80;;
48993;SDS011;34804;49.214;12.276;2022-09-09T15:21:44;4.28;;;1.20;;
48993;SDS011;34804;49.214;12.276;2022-09-09T15:24:10;5.00;;;1.23;;
48993;SDS011;34804;49.214;12.276;2022-09-09T15:26:39;4.28;;;1.00;;
48993;SDS011;34804;49.214;12.276;2022-09-09T15:29:06;4.85;;;0.88;;
48993;SDS011;34804;49.214;12.276;2022-09-09T15:31:34;3.70;;;1.10;;
48993;SDS011;34804;49.214;12.276;2022-09-09T15:34:02;2.58;;;0.85;;
48993;SDS011;34804;49.214;12.276;2022-09-09T15:36:31;4.32;;;1.27;;
48993;SDS011;34804;49.214;12.276;2022-09-09T15:39:00;1.90;;;0.90;;
48993;SDS011;34804;49.214;12.276;2022-09-09T15:41:29;5.18;;;1.00;;
48993;SDS011;34804;49.214;12.276;2022-09-09T15:43:57;3.67;;;1.10;;
48993;SDS011;34804;49.214;12.276;2022-09-09T15:48:56;2.58;;;1.00;;
48993;SDS011;34804;49.214;12.276;2022-09-09T15:51:24;6.63;;;1.45;;
48993;SDS011;34804;49.214;12.276;2022-09-09T15:54:10;4.38;;;1.13;;
48993;SDS011;34804;49.214;12.276;2022-09-09T15:56:38;3.78;;;1.25;;
48993;SDS011;34804;49.214;12.276;2022-09-09T15:59:06;5.70;;;1.42;;
48993;SDS011;34804;49.214;12.276;2022-09-09T16:01:33;3.92;;;1.15;;
48993;SDS011;34804;49.214;12.276;2022-09-09T16:04:01;4.60;;;1.17;;
48993;SDS011;34804;49.214;12.276;2022-09-09T16:06:28;3.08;;;1.02;;
48993;SDS011;34804;49.214;12.276;2022-09-09T16:08:56;3.55;;;1.00;;
48993;SDS011;34804;49.214;12.276;2022-09-09T16:11:25;3.25;;;1.00;;
48993;SDS011;34804;49.214;12.276;2022-09-09T16:13:59;3.40;;;1.10;;
48993;SDS011;34804;49.214;12.276;2022-09-09T16:16:27;3.10;;;1.30;;
48993;SDS011;34804;49.214;12.276;2022-09-09T16:18:56;3.78;;;1.13;;
48993;SDS011;34804;49.214;12.276;2022-09-09T16:24:01;3.63;;;1.10;;
48993;SDS011;34804;49.214;12.276;2022-09-09T16:26:30;3.92;;;1.27;;
48993;SDS011;34804;49.214;12.276;2022-09-09T16:28:59;2.58;;;1.10;;
48993;SDS011;34804;49.214;12.276;2022-09-09T16:31:28;2.88;;;0.90;;
48993;SDS011;34804;49.214;12.276;2022-09-09T16:33:56;3.45;;;1.02;;
48993;SDS011;34804;49.214;12.276;2022-09-09T16:36:23;4.20;;;1.08;;
48993;SDS011;34804;49.214;12.276;2022-09-09T16:38:52;4.05;;;1.40;;
48993;SDS011;34804;49.214;12.276;2022-09-09T16:41:21;5.85;;;1.60;;
48993;SDS011;34804;49.214;12.276;2022-09-09T16:43:51;3.20;;;1.10;;
48993;SDS011;34804;49.214;12.276;2022-09-09T16:46:20;4.15;;;1.10;;
48993;SDS011;34804;49.214;12.276;2022-09-09T16:48:48;3.38;;;1.20;;
48993;SDS011;34804;49.214;12.276;2022-09-09T16:51:16;4.18;;;1.30;;
48993;SDS011;34804;49.214;12.276;2022-09-09T16:53:51;2.60;;;1.08;;
48993;SDS011;34804;49.214;12.276;2022-09-09T16:56:21;5.50;;;1.65;;
48993;SDS011;34804;49.214;12.276;2022-09-09T16:58:53;5.75;;;1.40;;
48993;SDS011;34804;49.214;12.276;2022-09-09T17:01:28;3.00;;;1.10;;
48993;SDS011;34804;49.214;12.276;2022-09-09T17:03:58;4.03;;;1.33;;
48993;SDS011;34804;49.214;12.276;2022-09-09T17:06:30;3.78;;;1.27;;
48993;SDS011;34804;49.214;12.276;2022-09-09T17:09:01;3.63;;;1.00;;
48993;SDS011;34804;49.214;12.276;2022-09-09T17:11:30;2.17;;;0.75;;
48993;SDS011;34804;49.214;12.276;2022-09-09T17:13:57;4.85;;;1.05;;
48993;SDS011;34804;49.214;12.276;2022-09-09T17:16:25;8.98;;;1.52;;
48993;SDS011;34804;49.214;12.276;2022-09-09T17:18:57;39.63;;;6.00;;
48993;SDS011;34804;49.214;12.276;2022-09-09T17:21:25;43.35;;;6.40;;
48993;SDS011;34804;49.214;12.276;2022-09-09T17:23:53;18.50;;;3.15;;